LICALOWI

Guest
Details From LICA - Lamezia Terme
To LOWI - Innsbruck Kranebitten
Flight Number -
Tags Generated
Created
Modified
Stats Distance 546 nm / 1,011 km
Max Altitude 0 ft / 0 m
Waypoints 4
Social Downloads 0
Likes 0
Share VATSIM

Download

Looking for another format? Having issues loading an existing format? Contact us
Advertisement - Login to hide

Notes

Generated

Route

LICA ERDUX OEJ11 LOWI

ID Type Via Altitude Latitude Longitude Leg Dist Tot Dist Heading (true) Name
O LICA APT - 0 ft / 0 m 38.90699˚ 16.22859˚ - 0 nm - -
ERDUX FIX - 0 ft / 0 m 43.25083˚ 13.68222˚ 285 nm 285 nm 337° / 335° -
OEJ11 FIX - 0 ft / 0 m 47.24597˚ 11.35125˚ 259 nm 544 nm 338° / 337° -
O LOWI APT - 0 ft / 0 m 47.25883˚ 11.33091˚ 1 nm 545 nm 313° / 313° -

Altitude Profile

Advertisement - Login to hide

Weather


0- 5 10 15 20 25 30 35+ Temperature / ° C

Clouds and Precipitation
Forecast for 2018-05-26 18:00 UTC. Updated 8 minutes ago

Ground ~20,000 ft ~40,000 ft Winds

LICA

Details ICAO LICA (SUF)
Name Lamezia Terme
Region Italy
Timezone Europe/Rome (UTC+2.0)
Stats Elevation 39 ft / 12 m (AMSL)
Location 38.905394° 16.242271°
Runways 1
Magnetic Variation 3.538° E

METAR

LICA 261650Z 26005KT 220V280 9999 FEW020 22/19 Q1017

Decode

TAF

TAF LICA 261100Z 2612/2712 27012KT 9999 SCT020 BECMG 2616/2618 VRB05KT BECMG 2708/2710 27010KT

Decode

Departure Runways

ID Width Length Bearing (true) Bearing (mag) Surface Threshold Offset Overrun Length
10 148 ft / 45 m 7,858 ft / 2,395 m 98.54° 95.00° Asphalt 348 ft / 106 m 0 ft / 0 m
28 148 ft / 45 m 7,858 ft / 2,395 m 278.55° 275.01° Asphalt 351 ft / 107 m 0 ft / 0 m

LOWI

Details ICAO LOWI (INN)
Name Innsbruck Kranebitten
Region Austria
Timezone Europe/Vienna (UTC+2.0)
Stats Elevation 1,906 ft / 581 m (AMSL)
Location 47.260226° 11.343967°
Runways 1
Magnetic Variation 3.072° E

METAR

LOWI 261650Z 06009KT 020V100 9999 FEW070 FEW070TCU BKN300 25/13 Q1018 NOSIG

Decode

TAF

TAF LOWI 261115Z 2612/2712 09005KT 9999 FEW060 SCT300 TX28/2614Z TN14/2704Z TEMPO 2613/2617 09012G25KT FEW060CB BECMG 2618/2620 VRB02KT CAVOK BECMG 2709/2711 12008KT 9999 FEW060 SCT100

Decode

Destination Runways

ID Width Length Bearing (true) Bearing (mag) Surface Threshold Offset Overrun Length
08 148 ft / 45 m 6,545 ft / 1,995 m 81.02° 77.95° Asphalt 338 ft / 103 m 0 ft / 0 m
26 148 ft / 45 m 6,545 ft / 1,995 m 261.04° 257.97° Asphalt 0 ft / 0 m 0 ft / 0 m

Approach Navaids

Runway Type Ident Frequency Range Bearing (true) Bearing (mag) Slope Elevation
26 Localiser OEV 111.10 MHz 27 nm / 50 km 256.00° 252.93° - 1,906 ft / 581 m (AMSL)
26 Localiser OEJ 109.70 MHz 30 nm / 56 km 69.00° 65.93° - 1,906 ft / 581 m (AMSL)
26 Glidescope OEV 111.10 MHz 18 nm / 33 km 256.00° 252.93° 3.80° 1,911 ft / 582 m (AMSL)
26 DME OEJ 109.70 MHz 30 nm / 56 km - - - 1,906 ft / 581 m (AMSL)
26 DME OEV 111.10 MHz 27 nm / 50 km - - - 1,911 ft / 582 m (AMSL)

Popular Alternatives